KLCH/LCH METAR and TAF weather

Enter ICAO airport designator
Station Type Date Time Source
KLCH METAR 2020/10/20 17:37 UTC NOAA

KLCH 201737Z 11006KT 10SM BKN021 OVC060 27/22 A3006 RMK AO2 T02670217


Station Type Date Time Source
KLCH Decoded METAR 2020/10/20 17:37 UTC NOAA

LAKE CHARLES REGIONAL AIRPORT , LA, United States (KLCH) 30-12N 093-23W 3M
Oct 20, 2020 - 01:37 PM EDT / 2020.10.20 1737 UTC
Wind: from the ESE (110 degrees) at 7 MPH (6 KT):0
Visibility: 10 mile(s):0
Sky conditions: overcast
Temperature: 80.1 F (26.7 C)
Dew Point: 71.1 F (21.7 C)
Relative Humidity: 74%
Pressure (altimeter): 30.06 in. Hg (1017 hPa)
ob: KLCH 201737Z 11006KT 10SM BKN021 OVC060 27/22 A3006 RMK AO2 T02670217
cycle: 17

Station Type Date Time Source
KLCH TAF 2020/10/20 18:39 UTC NOAA

TAF KLCH 201737Z 2018/2118 12009KT P6SM BKN017 OVC060
FM201900 12009KT P6SM BKN050
FM210100 VRB04KT P6SM FEW050 BKN200
FM210600 VRB03KT 4SM BR SCT008 BKN250
FM210900 VRB03KT 2SM BR SCT008 BKN250
FM211200 VRB03KT 1/2SM FG OVC003
FM211500 07008KT P6SM OVC025

Example: see airport list